Time,TemperatureF,DewpointF,PressureIn,WindDirection,WindDirectionDegrees,WindSpeedMPH,WindSpeedGustMPH,Humidity,HourlyPrecipIn,Conditions,Clouds,dailyrainin,SoftwareType,DateUTC
2013-01-07 00:03:00,-999.0,-99.9,30.21,ESE,114,11.0,13.0,-999,-99.99,,,-99.99,,2013-01-07 05:03:00,
2013-01-07 00:12:00,21.0,-99.9,30.21,ESE,115,11.0,14.0,-999,-99.99,,,-99.99,,2013-01-07 05:12:00,
2013-01-07 00:23:00,-999.0,-99.9,30.21,ESE,118,9.0,16.0,-999,-99.99,,,-99.99,,2013-01-07 05:23:00,
2013-01-07 00:33:00,-999.0,-99.9,30.21,SE,139,6.0,9.0,-999,-99.99,,,-99.99,,2013-01-07 05:33:00,
2013-01-07 00:43:00,21.0,-99.9,30.21,SE,133,5.0,8.0,-999,-99.99,,,-99.99,,2013-01-07 05:43:00,
2013-01-07 00:53:00,-999.0,-99.9,30.21,SE,140,4.0,8.0,-999,-99.99,,,-99.99,,2013-01-07 05:53:00,
2013-01-07 01:02:00,-999.0,-99.9,30.20,ESE,123,6.0,9.0,-999,-99.99,,,-99.99,,2013-01-07 06:02:00,
2013-01-07 01:12:00,-999.0,-99.9,30.20,ESE,123,4.0,8.0,-999,-99.99,,,-99.99,,2013-01-07 06:12:00,
2013-01-07 01:22:00,21.0,-99.9,30.20,SE,129,4.0,8.0,-999,-99.99,,,-99.99,,2013-01-07 06:22:00,
2013-01-07 01:32:00,-999.0,-99.9,30.20,SE,137,4.0,7.0,-999,-99.99,,,-99.99,,2013-01-07 06:32:00,
2013-01-07 01:43:00,21.0,-99.9,30.21,SE,130,5.0,9.0,-999,-99.99,,,-99.99,,2013-01-07 06:43:00,
2013-01-07 01:52:00,-999.0,-99.9,30.21,SE,138,4.0,7.0,-999,-99.99,,,-99.99,,2013-01-07 06:52:00,
2013-01-07 02:02:00,-999.0,-99.9,30.22,SE,133,3.0,8.0,-999,-99.99,,,-99.99,,2013-01-07 07:02:00,
2013-01-07 02:12:00,21.0,-99.9,30.22,ESE,122,7.0,12.0,-999,-99.99,,,-99.99,,2013-01-07 07:12:00,
2013-01-07 02:23:00,-999.0,-99.9,30.22,ESE,120,4.0,6.0,-999,-99.99,,,-99.99,,2013-01-07 07:23:00,
2013-01-07 02:33:00,-999.0,-99.9,30.21,ESE,112,5.0,7.0,-999,-99.99,,,-99.99,,2013-01-07 07:33:00,
2013-01-07 02:43:00,-999.0,-99.9,30.20,SE,125,3.0,6.0,-999,-99.99,,,-99.99,,2013-01-07 07:43:00,
2013-01-07 02:53:00,-999.0,-99.9,30.20,ESE,117,3.0,4.0,-999,-99.99,,,-99.99,,2013-01-07 07:53:00,
2013-01-07 03:03:00,-999.0,-99.9,30.20,SE,129,4.0,6.0,-999,-99.99,,,-99.99,,2013-01-07 08:03:00,
2013-01-07 03:12:00,22.0,-99.9,30.19,SE,124,4.0,6.0,-999,-99.99,,,-99.99,,2013-01-07 08:12:00,
2013-01-07 03:22:00,-999.0,-99.9,30.20,ESE,121,11.0,15.0,-999,-99.99,,,-99.99,,2013-01-07 08:22:00,
2013-01-07 03:33:00,-999.0,-99.9,30.19,ESE,116,11.0,16.0,-999,-99.99,,,-99.99,,2013-01-07 08:33:00,
2013-01-07 03:43:00,22.0,-99.9,30.19,ESE,121,9.0,15.0,-999,-99.99,,,-99.99,,2013-01-07 08:43:00,
2013-01-07 03:53:00,-999.0,-99.9,30.19,ESE,119,10.0,14.0,-999,-99.99,,,-99.99,,2013-01-07 08:53:00,
2013-01-07 04:02:00,-999.0,-99.9,30.19,SE,128,8.0,11.0,-999,-99.99,,,-99.99,,2013-01-07 09:02:00,
2013-01-07 04:12:00,-999.0,-99.9,30.18,SE,126,9.0,13.0,-999,-99.99,,,-99.99,,2013-01-07 09:12:00,
2013-01-07 04:23:00,-999.0,-99.9,30.19,SE,125,8.0,13.0,-999,-99.99,,,-99.99,,2013-01-07 09:23:00,
2013-01-07 04:32:00,-999.0,-99.9,30.18,SE,125,11.0,14.0,-999,-99.99,,,-99.99,,2013-01-07 09:32:00,
2013-01-07 04:43:00,-999.0,-99.9,30.17,ESE,122,11.0,15.0,-999,-99.99,,,-99.99,,2013-01-07 09:43:00,
2013-01-07 04:53:00,20.0,-99.9,30.17,SE,126,8.0,14.0,-999,-99.99,,,-99.99,,2013-01-07 09:53:00,
2013-01-07 05:02:00,-999.0,-99.9,30.17,SE,130,9.0,12.0,-999,-99.99,,,-99.99,,2013-01-07 10:02:00,
2013-01-07 05:12:00,20.0,-99.9,30.16,ESE,122,12.0,15.0,-999,-99.99,,,-99.99,,2013-01-07 10:12:00,
2013-01-07 05:23:00,-999.0,-99.9,30.16,ESE,119,11.0,15.0,-999,-99.99,,,-99.99,,2013-01-07 10:23:00,
2013-01-07 05:33:00,-999.0,-99.9,30.16,ESE,122,8.0,14.0,-999,-99.99,,,-99.99,,2013-01-07 10:33:00,
2013-01-07 05:43:00,-999.0,-99.9,30.15,ESE,111,11.0,14.0,-999,-99.99,,,-99.99,,2013-01-07 10:43:00,
2013-01-07 05:53:00,-999.0,-99.9,30.15,ESE,118,9.0,13.0,-999,-99.99,,,-99.99,,2013-01-07 10:53:00,
2013-01-07 06:02:00,-999.0,-99.9,30.15,ESE,113,10.0,14.0,-999,-99.99,,,-99.99,,2013-01-07 11:02:00,
2013-01-07 06:12:00,-999.0,-99.9,30.14,ESE,106,15.0,18.0,-999,-99.99,,,-99.99,,2013-01-07 11:12:00,
2013-01-07 06:23:00,20.0,-99.9,30.13,ESE,108,15.0,19.0,-999,-99.99,,,-99.99,,2013-01-07 11:23:00,
2013-01-07 06:33:00,-999.0,-99.9,30.13,ESE,108,15.0,18.0,-999,-99.99,,,-99.99,,2013-01-07 11:33:00,
2013-01-07 06:43:00,20.0,-99.9,30.13,ESE,107,15.0,19.0,-999,-99.99,,,-99.99,,2013-01-07 11:43:00,
2013-01-07 06:53:00,-999.0,-99.9,30.11,ESE,105,18.0,20.0,-999,-99.99,,,-99.99,,2013-01-07 11:53:00,
2013-01-07 07:03:00,-999.0,-99.9,30.11,ESE,113,17.0,22.0,-999,-99.99,,,-99.99,,2013-01-07 12:03:00,
2013-01-07 07:13:00,-999.0,-99.9,30.10,ESE,115,16.0,21.0,-999,-99.99,,,-99.99,,2013-01-07 12:13:00,
2013-01-07 07:23:00,-999.0,-99.9,30.10,ESE,119,15.0,21.0,-999,-99.99,,,-99.99,,2013-01-07 12:23:00,
2013-01-07 07:33:00,-999.0,-99.9,30.09,ESE,116,15.0,21.0,-999,-99.99,,,-99.99,,2013-01-07 12:33:00,
2013-01-07 07:43:00,-999.0,-99.9,30.09,ESE,119,13.0,18.0,-999,-99.99,,,-99.99,,2013-01-07 12:43:00,
2013-01-07 07:53:00,22.0,-99.9,30.09,ESE,119,14.0,17.0,-999,-99.99,,,-99.99,,2013-01-07 12:53:00,
2013-01-07 08:03:00,-999.0,-99.9,30.08,ESE,121,14.0,18.0,-999,-99.99,,,-99.99,,2013-01-07 13:03:00,
2013-01-07 08:12:00,22.0,-99.9,30.07,ESE,121,13.0,17.0,-999,-99.99,,,-99.99,,2013-01-07 13:12:00,
2013-01-07 08:23:00,-999.0,-99.9,30.07,ESE,121,13.0,20.0,-999,-99.99,,,-99.99,,2013-01-07 13:23:00,
2013-01-07 08:33:00,-999.0,-99.9,30.06,SE,127,11.0,17.0,-999,-99.99,,,-99.99,,2013-01-07 13:33:00,
2013-01-07 08:43:00,24.0,-99.9,30.06,ESE,122,11.0,16.0,-999,-99.99,,,-99.99,,2013-01-07 13:43:00,
2013-01-07 08:53:00,-999.0,-99.9,30.06,ESE,121,14.0,18.0,-999,-99.99,,,-99.99,,2013-01-07 13:53:00,
2013-01-07 09:03:00,-999.0,-99.9,30.05,ESE,121,9.0,13.0,-999,-99.99,,,-99.99,,2013-01-07 14:03:00,
2013-01-07 09:13:00,-999.0,-99.9,30.04,ESE,120,9.0,13.0,-999,-99.99,,,-99.99,,2013-01-07 14:13:00,
2013-01-07 09:23:00,26.0,-99.9,30.04,SE,128,6.0,12.0,-999,-99.99,,,-99.99,,2013-01-07 14:23:00,
2013-01-07 09:33:00,-999.0,-99.9,30.04,SE,130,4.0,9.0,-999,-99.99,,,-99.99,,2013-01-07 14:33:00,
2013-01-07 09:43:00,27.0,-99.9,30.04,SE,128,5.0,9.0,-999,-99.99,,,-99.99,,2013-01-07 14:43:00,
2013-01-07 09:53:00,-999.0,-99.9,30.04,SE,146,3.0,6.0,-999,-99.99,,,-99.99,,2013-01-07 14:53:00,
2013-01-07 10:03:00,-999.0,-99.9,30.04,SE,141,5.0,11.0,-999,-99.99,,,-99.99,,2013-01-07 15:03:00,
2013-01-07 10:12:00,29.0,-99.9,30.03,SE,132,4.0,10.0,-999,-99.99,,,-99.99,,2013-01-07 15:12:00,
2013-01-07 10:23:00,-999.0,-99.9,30.03,SE,131,4.0,11.0,-999,-99.99,,,-99.99,,2013-01-07 15:23:00,
2013-01-07 10:33:00,-999.0,-99.9,30.02,SE,132,7.0,13.0,-999,-99.99,,,-99.99,,2013-01-07 15:33:00,
2013-01-07 10:43:00,-999.0,-99.9,30.01,SE,143,6.0,10.0,-999,-99.99,,,-99.99,,2013-01-07 15:43:00,
2013-01-07 10:53:00,30.0,-99.9,30.00,SE,131,8.0,12.0,-999,-99.99,,,-99.99,,2013-01-07 15:53:00,
2013-01-07 11:03:00,-999.0,-99.9,30.00,SE,142,5.0,12.0,-999,-99.99,,,-99.99,,2013-01-07 16:03:00,
2013-01-07 11:12:00,31.0,-99.9,29.99,SE,139,6.0,14.0,-999,-99.99,,,-99.99,,2013-01-07 16:12:00,
2013-01-07 11:23:00,-999.0,-99.9,29.99,SSE,154,3.0,10.0,-999,-99.99,,,-99.99,,2013-01-07 16:23:00,
2013-01-07 11:33:00,32.0,-99.9,29.97,SE,143,8.0,13.0,-999,-99.99,,,-99.99,,2013-01-07 16:33:00,
2013-01-07 11:43:00,33.0,-99.9,29.96,SSE,165,8.0,13.0,-999,-99.99,,,-99.99,,2013-01-07 16:43:00,
2013-01-07 11:53:00,33.0,-99.9,29.94,SSE,165,11.0,15.0,-999,-99.99,,,-99.99,,2013-01-07 16:53:00,
2013-01-07 12:03:00,33.0,-99.9,29.93,SSE,165,8.0,20.0,-999,-99.99,,,-99.99,,2013-01-07 17:03:00,
2013-01-07 12:12:00,33.0,-99.9,29.92,South,177,8.0,22.0,-999,-99.99,,,-99.99,,2013-01-07 17:12:00,
2013-01-07 12:23:00,33.0,-99.9,29.92,SSE,168,8.0,22.0,-999,-99.99,,,-99.99,,2013-01-07 17:23:00,
2013-01-07 12:33:00,34.0,-99.9,29.91,South,169,6.0,19.0,-999,-99.99,,,-99.99,,2013-01-07 17:33:00,
2013-01-07 12:43:00,34.0,-99.9,29.91,South,179,9.0,19.0,-999,-99.99,,,-99.99,,2013-01-07 17:43:00,
2013-01-07 12:53:00,34.0,-99.9,29.88,South,173,9.0,24.0,-999,-99.99,,,-99.99,,2013-01-07 17:53:00,
2013-01-07 13:03:00,34.0,-99.9,29.87,South,189,9.0,21.0,-999,-99.99,,,-99.99,,2013-01-07 18:03:00,
2013-01-07 13:13:00,34.0,-99.9,29.86,South,185,9.0,18.0,-999,-99.99,,,-99.99,,2013-01-07 18:13:00,
2013-01-07 13:24:00,34.0,-99.9,29.85,South,174,13.0,22.0,-999,-99.99,,,-99.99,,2013-01-07 18:24:00,
2013-01-07 13:33:00,35.0,-99.9,29.83,South,181,11.0,21.0,-999,-99.99,,,-99.99,,2013-01-07 18:33:00,
2013-01-07 13:43:00,35.0,-99.9,29.83,South,188,8.0,18.0,-999,-99.99,,,-99.99,,2013-01-07 18:43:00,
2013-01-07 13:53:00,35.0,-99.9,29.83,South,176,7.0,19.0,-999,-99.99,,,-99.99,,2013-01-07 18:53:00,
2013-01-07 14:03:00,36.0,-99.9,29.84,SSW,203,11.0,18.0,-999,-99.99,,,-99.99,,2013-01-07 19:03:00,
2013-01-07 14:12:00,37.0,-99.9,29.83,SSW,202,6.0,15.0,-999,-99.99,,,-99.99,,2013-01-07 19:12:00,
2013-01-07 14:23:00,38.0,-99.9,29.83,SSW,203,5.0,15.0,-999,-99.99,,,-99.99,,2013-01-07 19:23:00,
2013-01-07 14:33:00,38.0,-99.9,29.82,SW,229,10.0,24.0,-999,-99.99,,,-99.99,,2013-01-07 19:33:00,
2013-01-07 14:43:00,38.0,-99.9,29.82,SW,235,9.0,22.0,-999,-99.99,,,-99.99,,2013-01-07 19:43:00,
2013-01-07 14:53:00,38.0,-99.9,29.80,SW,219,9.0,29.0,-999,-99.99,,,-99.99,,2013-01-07 19:53:00,
2013-01-07 15:03:00,39.0,-99.9,29.80,SSW,201,6.0,20.0,-999,-99.99,,,-99.99,,2013-01-07 20:03:00,
2013-01-07 15:13:00,39.0,-99.9,29.81,SW,215,10.0,27.0,-999,-99.99,,,-99.99,,2013-01-07 20:13:00,
2013-01-07 15:23:00,39.0,-99.9,29.81,SW,218,9.0,22.0,-999,-99.99,,,-99.99,,2013-01-07 20:23:00,
2013-01-07 15:33:00,38.0,-99.9,29.81,SW,218,9.0,20.0,-999,-99.99,,,-99.99,,2013-01-07 20:33:00,
2013-01-07 15:43:00,38.0,-99.9,29.81,SW,225,16.0,26.0,-999,-99.99,,,-99.99,,2013-01-07 20:43:00,
2013-01-07 15:53:00,38.0,-99.9,29.81,SW,218,8.0,19.0,-999,-99.99,,,-99.99,,2013-01-07 20:53:00,
2013-01-07 16:03:00,38.0,-99.9,29.80,SW,222,7.0,23.0,-999,-99.99,,,-99.99,,2013-01-07 21:03:00,
2013-01-07 16:12:00,37.0,-99.9,29.79,SW,225,7.0,19.0,-999,-99.99,,,-99.99,,2013-01-07 21:12:00,
2013-01-07 16:23:00,38.0,-99.9,29.79,WSW,237,6.0,19.0,-999,-99.99,,,-99.99,,2013-01-07 21:23:00,
2013-01-07 16:33:00,38.0,-99.9,29.78,WSW,238,16.0,26.0,-999,-99.99,,,-99.99,,2013-01-07 21:33:00,
2013-01-07 16:43:00,37.0,-99.9,29.79,WSW,237,17.0,32.0,-999,-99.99,,,-99.99,,2013-01-07 21:43:00,
2013-01-07 16:53:00,37.0,-99.9,29.79,SW,230,11.0,26.0,-999,-99.99,,,-99.99,,2013-01-07 21:53:00,
2013-01-07 17:03:00,37.0,-99.9,29.79,WSW,242,11.0,23.0,-999,-99.99,,,-99.99,,2013-01-07 22:03:00,
2013-01-07 17:12:00,37.0,-99.9,29.79,WSW,238,9.0,19.0,-999,-99.99,,,-99.99,,2013-01-07 22:12:00,
2013-01-07 17:23:00,37.0,-99.9,29.80,WSW,245,12.0,19.0,-999,-99.99,,,-99.99,,2013-01-07 22:23:00,
2013-01-07 17:33:00,37.0,-99.9,29.81,WSW,242,9.0,22.0,-999,-99.99,,,-99.99,,2013-01-07 22:33:00,
2013-01-07 17:43:00,37.0,-99.9,29.81,WSW,239,9.0,26.0,-999,-99.99,,,-99.99,,2013-01-07 22:43:00,
2013-01-07 17:53:00,37.0,-99.9,29.80,SW,236,9.0,29.0,-999,-99.99,,,-99.99,,2013-01-07 22:53:00,
2013-01-07 18:03:00,36.0,-99.9,29.80,SW,227,8.0,28.0,-999,-99.99,,,-99.99,,2013-01-07 23:03:00,
2013-01-07 18:12:00,36.0,-99.9,29.81,SW,235,12.0,22.0,-999,-99.99,,,-99.99,,2013-01-07 23:12:00,
2013-01-07 18:23:00,36.0,-99.9,29.81,WSW,244,12.0,20.0,-999,-99.99,,,-99.99,,2013-01-07 23:23:00,
2013-01-07 18:33:00,36.0,-99.9,29.80,WSW,243,13.0,22.0,-999,-99.99,,,-99.99,,2013-01-07 23:33:00,
2013-01-07 18:43:00,36.0,-99.9,29.80,WSW,239,13.0,26.0,-999,-99.99,,,-99.99,,2013-01-07 23:43:00,
2013-01-07 18:53:00,36.0,-99.9,29.80,WSW,247,9.0,19.0,-999,-99.99,,,-99.99,,2013-01-07 23:53:00,
2013-01-07 19:03:00,36.0,-99.9,29.80,SW,214,10.0,24.0,-999,-99.99,,,-99.99,,2013-01-08 00:03:00,
2013-01-07 19:13:00,36.0,-99.9,29.80,SW,234,7.0,27.0,-999,-99.99,,,-99.99,,2013-01-08 00:13:00,
2013-01-07 19:23:00,36.0,-99.9,29.81,SW,227,13.0,26.0,-999,-99.99,,,-99.99,,2013-01-08 00:23:00,
2013-01-07 19:33:00,36.0,-99.9,29.82,SW,228,10.0,25.0,-999,-99.99,,,-99.99,,2013-01-08 00:33:00,
2013-01-07 19:43:00,36.0,-99.9,29.81,SW,226,12.0,24.0,-999,-99.99,,,-99.99,,2013-01-08 00:43:00,
2013-01-07 19:53:00,36.0,-99.9,29.80,SW,224,10.0,20.0,-999,-99.99,,,-99.99,,2013-01-08 00:53:00,
2013-01-07 20:03:00,36.0,-99.9,29.80,SW,225,10.0,25.0,-999,-99.99,,,-99.99,,2013-01-08 01:03:00,
2013-01-07 20:12:00,36.0,-99.9,29.80,SW,229,8.0,24.0,-999,-99.99,,,-99.99,,2013-01-08 01:12:00,
2013-01-07 20:22:00,36.0,-99.9,29.80,SW,226,10.0,22.0,-999,-99.99,,,-99.99,,2013-01-08 01:22:00,
2013-01-07 20:33:00,36.0,-99.9,29.80,SW,224,11.0,24.0,-999,-99.99,,,-99.99,,2013-01-08 01:33:00,
2013-01-07 20:42:00,36.0,-99.9,29.80,SW,227,13.0,23.0,-999,-99.99,,,-99.99,,2013-01-08 01:42:00,
2013-01-07 20:53:00,36.0,-99.9,29.80,SW,218,10.0,25.0,-999,-99.99,,,-99.99,,2013-01-08 01:53:00,
2013-01-07 21:02:00,36.0,-99.9,29.80,SW,220,11.0,25.0,-999,-99.99,,,-99.99,,2013-01-08 02:02:00,
2013-01-07 21:12:00,36.0,-99.9,29.80,SW,222,10.0,21.0,-999,-99.99,,,-99.99,,2013-01-08 02:12:00,
2013-01-07 21:23:00,36.0,-99.9,29.80,SW,232,12.0,23.0,-999,-99.99,,,-99.99,,2013-01-08 02:23:00,
2013-01-07 21:33:00,36.0,-99.9,29.80,SW,224,8.0,27.0,-999,-99.99,,,-99.99,,2013-01-08 02:33:00,
2013-01-07 21:43:00,36.0,-99.9,29.81,SW,216,12.0,23.0,-999,-99.99,,,-99.99,,2013-01-08 02:43:00,
2013-01-07 21:53:00,36.0,-99.9,29.82,SW,232,12.0,24.0,-999,-99.99,,,-99.99,,2013-01-08 02:53:00,
2013-01-07 22:03:00,36.0,-99.9,29.81,SW,228,7.0,20.0,-999,-99.99,,,-99.99,,2013-01-08 03:03:00,
2013-01-07 22:12:00,36.0,-99.9,29.82,SW,229,9.0,19.0,-999,-99.99,,,-99.99,,2013-01-08 03:12:00,
2013-01-07 22:22:00,36.0,-99.9,29.82,SW,224,10.0,20.0,-999,-99.99,,,-99.99,,2013-01-08 03:22:00,
2013-01-07 22:33:00,35.0,-99.9,29.83,SW,231,9.0,15.0,-999,-99.99,,,-99.99,,2013-01-08 03:33:00,
2013-01-07 22:43:00,35.0,-99.9,29.83,SW,232,9.0,18.0,-999,-99.99,,,-99.99,,2013-01-08 03:43:00,
2013-01-07 22:53:00,35.0,-99.9,29.83,WSW,238,7.0,15.0,-999,-99.99,,,-99.99,,2013-01-08 03:53:00,
2013-01-07 23:02:00,35.0,-99.9,29.83,SW,228,9.0,17.0,-999,-99.99,,,-99.99,,2013-01-08 04:02:00,
2013-01-07 23:12:00,35.0,-99.9,29.84,SW,229,9.0,16.0,-999,-99.99,,,-99.99,,2013-01-08 04:12:00,
2013-01-07 23:22:00,35.0,-99.9,29.84,WSW,238,8.0,19.0,-999,-99.99,,,-99.99,,2013-01-08 04:22:00,
2013-01-07 23:33:00,35.0,-99.9,29.85,SW,234,10.0,18.0,-999,-99.99,,,-99.99,,2013-01-08 04:33:00,
2013-01-07 23:43:00,35.0,-99.9,29.85,WSW,237,8.0,18.0,-999,-99.99,,,-99.99,,2013-01-08 04:43:00,
2013-01-07 23:52:00,35.0,-99.9,29.85,WSW,239,7.0,15.0,-999,-99.99,,,-99.99,,2013-01-08 04:52:00,